Virtual Washington ARTCC

Weather

KBWI 200923Z 22006KT 3SM BR OVC003 11/11 A3030 RMK AO2 T01060106
KDCA 200905Z 21011KT 10SM OVC005 12/11 A3033 RMK AO2 T01170111
KIAD 200852Z 20013KT 2SM OVC003 10/10 A3030 RMK AO2 SFC VIS 8 SLP261 T01000100 56007
KORF 200938Z 00000KT 3/4SM R05/4000V4500FT BR OVC002 14/14 A3040 RMK AO2 T01440144
KRDU 200917Z 00000KT 1/4SM R23R/2000V2600FT FG OVC001 11/11 A3041 RMK AO2 T01060106

Events



ZDC Activity

No controllers online.

News



The information contained on all pages of this website is to be used for flight simulation purposes only on the VATSIM network. It is not intended nor should it be used for real world navigation.This site is not affiliated with the FAA, the actual Washington Center or any governing aviation body. All content contained herein is approved only for use on the VATSIM network. ©2016 Virtual Washington ARTCC -- Source Code © 2016-2017 W. Guisbond and R. Rump.